sensor_id;sensor_type;location;lat;lon;timestamp;temperature;humidity
44047;DHT22;29713;-33.888;151.150;2023-04-15T00:00:20;20.90;99.90
44047;DHT22;29713;-33.888;151.150;2023-04-15T00:02:47;21.00;99.90
44047;DHT22;29713;-33.888;151.150;2023-04-15T00:05:15;21.10;99.90
44047;DHT22;29713;-33.888;151.150;2023-04-15T00:07:42;21.20;99.90
44047;DHT22;29713;-33.888;151.150;2023-04-15T00:10:12;21.40;99.90
44047;DHT22;29713;-33.888;151.150;2023-04-15T00:12:43;21.50;99.90
44047;DHT22;29713;-33.888;151.150;2023-04-15T00:15:10;21.60;99.90
44047;DHT22;29713;-33.888;151.150;2023-04-15T00:17:38;21.80;99.90
44047;DHT22;29713;-33.888;151.150;2023-04-15T00:20:06;21.90;99.90
44047;DHT22;29713;-33.888;151.150;2023-04-15T00:22:33;22.10;99.90
44047;DHT22;29713;-33.888;151.150;2023-04-15T00:25:01;22.20;99.90
44047;DHT22;29713;-33.888;151.150;2023-04-15T00:27:28;22.40;99.90
44047;DHT22;29713;-33.888;151.150;2023-04-15T00:29:56;22.50;99.90
44047;DHT22;29713;-33.888;151.150;2023-04-15T00:32:23;22.60;99.90
44047;DHT22;29713;-33.888;151.150;2023-04-15T00:34:51;22.80;99.90
44047;DHT22;29713;-33.888;151.150;2023-04-15T00:37:18;22.90;99.90
44047;DHT22;29713;-33.888;151.150;2023-04-15T00:39:45;23.00;99.90
44047;DHT22;29713;-33.888;151.150;2023-04-15T00:42:13;23.10;99.90
44047;DHT22;29713;-33.888;151.150;2023-04-15T00:44:40;23.20;99.90
44047;DHT22;29713;-33.888;151.150;2023-04-15T00:47:08;23.40;99.90
44047;DHT22;29713;-33.888;151.150;2023-04-15T00:49:36;23.40;99.90
44047;DHT22;29713;-33.888;151.150;2023-04-15T00:52:04;23.50;99.90
44047;DHT22;29713;-33.888;151.150;2023-04-15T00:54:31;23.60;99.90
44047;DHT22;29713;-33.888;151.150;2023-04-15T00:56:58;23.70;99.90
44047;DHT22;29713;-33.888;151.150;2023-04-15T00:59:26;23.80;99.90
44047;DHT22;29713;-33.888;151.150;2023-04-15T01:01:54;23.80;99.90
44047;DHT22;29713;-33.888;151.150;2023-04-15T01:04:22;24.00;99.90
44047;DHT22;29713;-33.888;151.150;2023-04-15T01:06:50;24.20;99.90
44047;DHT22;29713;-33.888;151.150;2023-04-15T01:09:17;24.30;99.90
44047;DHT22;29713;-33.888;151.150;2023-04-15T01:11:45;24.40;99.90
44047;DHT22;29713;-33.888;151.150;2023-04-15T01:14:13;24.60;99.90
44047;DHT22;29713;-33.888;151.150;2023-04-15T01:16:40;24.80;99.90
44047;DHT22;29713;-33.888;151.150;2023-04-15T01:19:10;24.90;99.90
44047;DHT22;29713;-33.888;151.150;2023-04-15T01:21:39;25.10;99.90
44047;DHT22;29713;-33.888;151.150;2023-04-15T01:24:09;25.20;99.90
44047;DHT22;29713;-33.888;151.150;2023-04-15T01:26:40;25.40;99.90
44047;DHT22;29713;-33.888;151.150;2023-04-15T01:29:07;25.50;99.90
44047;DHT22;29713;-33.888;151.150;2023-04-15T01:31:35;25.60;99.90
44047;DHT22;29713;-33.888;151.150;2023-04-15T01:34:03;25.60;99.90
44047;DHT22;29713;-33.888;151.150;2023-04-15T01:36:30;25.60;99.90
44047;DHT22;29713;-33.888;151.150;2023-04-15T01:38:58;25.80;99.90
44047;DHT22;29713;-33.888;151.150;2023-04-15T01:41:26;25.90;99.90
44047;DHT22;29713;-33.888;151.150;2023-04-15T01:43:54;26.20;99.90
44047;DHT22;29713;-33.888;151.150;2023-04-15T01:46:22;26.40;99.90
44047;DHT22;29713;-33.888;151.150;2023-04-15T01:48:58;26.40;99.90
44047;DHT22;29713;-33.888;151.150;2023-04-15T01:51:26;26.30;99.90
44047;DHT22;29713;-33.888;151.150;2023-04-15T01:53:53;26.40;99.90
44047;DHT22;29713;-33.888;151.150;2023-04-15T01:56:22;26.60;99.90
44047;DHT22;29713;-33.888;151.150;2023-04-15T01:58:50;26.90;99.90
44047;DHT22;29713;-33.888;151.150;2023-04-15T02:01:17;27.30;99.90
44047;DHT22;29713;-33.888;151.150;2023-04-15T02:03:47;27.40;99.90
44047;DHT22;29713;-33.888;151.150;2023-04-15T02:06:15;27.40;99.90
44047;DHT22;29713;-33.888;151.150;2023-04-15T02:08:43;27.80;99.90
44047;DHT22;29713;-33.888;151.150;2023-04-15T02:11:11;28.30;99.90
44047;DHT22;29713;-33.888;151.150;2023-04-15T02:13:38;28.50;99.90
44047;DHT22;29713;-33.888;151.150;2023-04-15T02:16:17;28.80;99.90
44047;DHT22;29713;-33.888;151.150;2023-04-15T02:18:45;29.10;99.90
44047;DHT22;29713;-33.888;151.150;2023-04-15T02:21:13;29.50;99.90
44047;DHT22;29713;-33.888;151.150;2023-04-15T02:23:40;29.80;99.90
44047;DHT22;29713;-33.888;151.150;2023-04-15T02:26:09;29.70;99.90
44047;DHT22;29713;-33.888;151.150;2023-04-15T02:28:37;29.70;99.90
44047;DHT22;29713;-33.888;151.150;2023-04-15T02:31:07;30.10;99.90
44047;DHT22;29713;-33.888;151.150;2023-04-15T02:33:35;30.50;99.90
44047;DHT22;29713;-33.888;151.150;2023-04-15T02:36:03;30.50;99.90
44047;DHT22;29713;-33.888;151.150;2023-04-15T02:38:31;30.90;99.90
44047;DHT22;29713;-33.888;151.150;2023-04-15T02:40:59;31.20;99.90
44047;DHT22;29713;-33.888;151.150;2023-04-15T02:43:26;31.20;99.90
44047;DHT22;29713;-33.888;151.150;2023-04-15T02:45:53;31.10;99.90
44047;DHT22;29713;-33.888;151.150;2023-04-15T02:48:21;31.20;99.90
44047;DHT22;29713;-33.888;151.150;2023-04-15T02:50:48;31.20;99.90
44047;DHT22;29713;-33.888;151.150;2023-04-15T02:53:16;31.20;99.90
44047;DHT22;29713;-33.888;151.150;2023-04-15T02:55:43;31.40;99.90
44047;DHT22;29713;-33.888;151.150;2023-04-15T02:58:11;31.60;99.90
44047;DHT22;29713;-33.888;151.150;2023-04-15T03:00:39;31.80;99.90
44047;DHT22;29713;-33.888;151.150;2023-04-15T03:03:06;31.90;99.90
44047;DHT22;29713;-33.888;151.150;2023-04-15T03:05:34;32.00;99.90
44047;DHT22;29713;-33.888;151.150;2023-04-15T03:08:04;32.00;99.90
44047;DHT22;29713;-33.888;151.150;2023-04-15T03:10:32;32.10;99.90
44047;DHT22;29713;-33.888;151.150;2023-04-15T03:12:59;32.10;99.90
44047;DHT22;29713;-33.888;151.150;2023-04-15T03:15:26;32.30;99.90
44047;DHT22;29713;-33.888;151.150;2023-04-15T03:17:53;32.50;99.90
44047;DHT22;29713;-33.888;151.150;2023-04-15T03:20:21;32.30;99.90
44047;DHT22;29713;-33.888;151.150;2023-04-15T03:22:48;32.40;99.90
44047;DHT22;29713;-33.888;151.150;2023-04-15T03:25:16;32.20;99.90
44047;DHT22;29713;-33.888;151.150;2023-04-15T03:27:46;32.20;99.90
44047;DHT22;29713;-33.888;151.150;2023-04-15T03:30:14;32.40;99.90
44047;DHT22;29713;-33.888;151.150;2023-04-15T03:32:41;32.50;99.90
44047;DHT22;29713;-33.888;151.150;2023-04-15T03:35:12;32.60;99.90
44047;DHT22;29713;-33.888;151.150;2023-04-15T03:37:39;32.60;99.90
44047;DHT22;29713;-33.888;151.150;2023-04-15T03:40:07;32.30;99.90
44047;DHT22;29713;-33.888;151.150;2023-04-15T03:42:35;32.40;99.90
44047;DHT22;29713;-33.888;151.150;2023-04-15T03:45:02;32.50;99.90
44047;DHT22;29713;-33.888;151.150;2023-04-15T03:47:30;32.40;99.90
44047;DHT22;29713;-33.888;151.150;2023-04-15T03:49:57;32.10;99.90
44047;DHT22;29713;-33.888;151.150;2023-04-15T03:52:24;31.90;99.90
44047;DHT22;29713;-33.888;151.150;2023-04-15T03:54:52;32.10;99.90
44047;DHT22;29713;-33.888;151.150;2023-04-15T03:57:19;31.70;99.90
44047;DHT22;29713;-33.888;151.150;2023-04-15T03:59:47;31.70;99.90
44047;DHT22;29713;-33.888;151.150;2023-04-15T04:02:14;31.70;99.90
44047;DHT22;29713;-33.888;151.150;2023-04-15T04:04:41;31.90;99.90
44047;DHT22;29713;-33.888;151.150;2023-04-15T04:07:17;31.90;99.90
44047;DHT22;29713;-33.888;151.150;2023-04-15T04:09:44;31.70;99.90
44047;DHT22;29713;-33.888;151.150;2023-04-15T04:12:12;31.30;99.90
44047;DHT22;29713;-33.888;151.150;2023-04-15T04:14:39;31.20;99.90
44047;DHT22;29713;-33.888;151.150;2023-04-15T04:17:06;30.90;99.90
44047;DHT22;29713;-33.888;151.150;2023-04-15T04:19:34;30.40;99.90
44047;DHT22;29713;-33.888;151.150;2023-04-15T04:22:01;29.90;99.90
44047;DHT22;29713;-33.888;151.150;2023-04-15T04:24:29;29.30;99.90
44047;DHT22;29713;-33.888;151.150;2023-04-15T04:26:56;28.80;99.90
44047;DHT22;29713;-33.888;151.150;2023-04-15T04:29:23;28.50;99.90
44047;DHT22;29713;-33.888;151.150;2023-04-15T04:31:51;28.20;99.90
44047;DHT22;29713;-33.888;151.150;2023-04-15T04:34:18;27.90;99.90
44047;DHT22;29713;-33.888;151.150;2023-04-15T04:36:45;27.80;99.90
44047;DHT22;29713;-33.888;151.150;2023-04-15T04:39:13;27.90;99.90
44047;DHT22;29713;-33.888;151.150;2023-04-15T04:41:40;28.10;99.90
44047;DHT22;29713;-33.888;151.150;2023-04-15T04:44:07;28.00;99.90
44047;DHT22;29713;-33.888;151.150;2023-04-15T04:46:35;28.10;99.90
44047;DHT22;29713;-33.888;151.150;2023-04-15T04:49:02;28.10;99.90
44047;DHT22;29713;-33.888;151.150;2023-04-15T04:51:29;28.40;99.90
44047;DHT22;29713;-33.888;151.150;2023-04-15T04:53:57;28.40;99.90
44047;DHT22;29713;-33.888;151.150;2023-04-15T04:56:25;28.30;99.90
44047;DHT22;29713;-33.888;151.150;2023-04-15T04:58:52;28.40;99.90
44047;DHT22;29713;-33.888;151.150;2023-04-15T05:01:19;28.70;99.90
44047;DHT22;29713;-33.888;151.150;2023-04-15T05:03:47;28.70;99.90
44047;DHT22;29713;-33.888;151.150;2023-04-15T05:06:14;28.70;99.90
44047;DHT22;29713;-33.888;151.150;2023-04-15T05:08:41;28.80;99.90
44047;DHT22;29713;-33.888;151.150;2023-04-15T05:11:09;28.70;99.90
44047;DHT22;29713;-33.888;151.150;2023-04-15T05:13:36;28.60;99.90
44047;DHT22;29713;-33.888;151.150;2023-04-15T05:16:07;28.60;99.90
44047;DHT22;29713;-33.888;151.150;2023-04-15T05:18:34;28.60;99.90
44047;DHT22;29713;-33.888;151.150;2023-04-15T05:21:03;28.60;99.90
44047;DHT22;29713;-33.888;151.150;2023-04-15T05:23:31;28.70;99.90
44047;DHT22;29713;-33.888;151.150;2023-04-15T05:25:58;28.90;99.90
44047;DHT22;29713;-33.888;151.150;2023-04-15T05:28:25;28.80;99.90
44047;DHT22;29713;-33.888;151.150;2023-04-15T05:30:53;28.60;99.90
44047;DHT22;29713;-33.888;151.150;2023-04-15T05:33:21;28.50;99.90
44047;DHT22;29713;-33.888;151.150;2023-04-15T05:35:48;28.40;99.90
44047;DHT22;29713;-33.888;151.150;2023-04-15T05:38:16;28.30;99.90
44047;DHT22;29713;-33.888;151.150;2023-04-15T05:40:43;28.10;99.90
44047;DHT22;29713;-33.888;151.150;2023-04-15T05:43:22;27.80;99.90
44047;DHT22;29713;-33.888;151.150;2023-04-15T05:46:09;27.40;99.90
44047;DHT22;29713;-33.888;151.150;2023-04-15T05:48:36;27.20;99.90
44047;DHT22;29713;-33.888;151.150;2023-04-15T05:51:04;26.70;99.90
44047;DHT22;29713;-33.888;151.150;2023-04-15T05:53:31;26.40;99.90
44047;DHT22;29713;-33.888;151.150;2023-04-15T05:55:59;26.10;99.90
44047;DHT22;29713;-33.888;151.150;2023-04-15T05:58:26;25.90;99.90
44047;DHT22;29713;-33.888;151.150;2023-04-15T06:00:54;25.60;99.90
44047;DHT22;29713;-33.888;151.150;2023-04-15T06:03:22;25.40;99.90
44047;DHT22;29713;-33.888;151.150;2023-04-15T06:05:49;25.30;99.90
44047;DHT22;29713;-33.888;151.150;2023-04-15T06:08:16;25.20;99.90
44047;DHT22;29713;-33.888;151.150;2023-04-15T06:10:44;25.10;99.90
44047;DHT22;29713;-33.888;151.150;2023-04-15T06:13:11;25.00;99.90
44047;DHT22;29713;-33.888;151.150;2023-04-15T06:15:39;24.90;99.90
44047;DHT22;29713;-33.888;151.150;2023-04-15T06:18:06;24.90;99.90
44047;DHT22;29713;-33.888;151.150;2023-04-15T06:20:34;24.90;99.90
44047;DHT22;29713;-33.888;151.150;2023-04-15T06:23:02;24.80;99.90
44047;DHT22;29713;-33.888;151.150;2023-04-15T06:25:29;24.90;99.90
44047;DHT22;29713;-33.888;151.150;2023-04-15T06:27:56;24.80;99.90
44047;DHT22;29713;-33.888;151.150;2023-04-15T06:30:24;24.80;99.90
44047;DHT22;29713;-33.888;151.150;2023-04-15T06:32:56;24.80;99.90
44047;DHT22;29713;-33.888;151.150;2023-04-15T06:35:23;24.60;99.90
44047;DHT22;29713;-33.888;151.150;2023-04-15T06:37:53;24.50;99.90
44047;DHT22;29713;-33.888;151.150;2023-04-15T06:40:20;24.40;99.90
44047;DHT22;29713;-33.888;151.150;2023-04-15T06:42:47;24.30;99.90
44047;DHT22;29713;-33.888;151.150;2023-04-15T06:45:15;24.10;99.90
44047;DHT22;29713;-33.888;151.150;2023-04-15T06:47:43;24.00;99.90
44047;DHT22;29713;-33.888;151.150;2023-04-15T06:50:10;24.00;99.90
44047;DHT22;29713;-33.888;151.150;2023-04-15T06:52:38;23.90;99.90
44047;DHT22;29713;-33.888;151.150;2023-04-15T06:55:05;23.80;99.90
44047;DHT22;29713;-33.888;151.150;2023-04-15T06:57:33;23.70;99.90
44047;DHT22;29713;-33.888;151.150;2023-04-15T07:00:01;23.60;99.90
44047;DHT22;29713;-33.888;151.150;2023-04-15T07:02:31;23.50;99.90
44047;DHT22;29713;-33.888;151.150;2023-04-15T07:04:58;23.50;99.90
44047;DHT22;29713;-33.888;151.150;2023-04-15T07:07:25;23.40;99.90
44047;DHT22;29713;-33.888;151.150;2023-04-15T07:09:53;23.30;99.90
44047;DHT22;29713;-33.888;151.150;2023-04-15T07:12:20;23.30;99.90
44047;DHT22;29713;-33.888;151.150;2023-04-15T07:14:47;23.20;99.90
44047;DHT22;29713;-33.888;151.150;2023-04-15T07:17:15;23.20;99.90
44047;DHT22;29713;-33.888;151.150;2023-04-15T07:19:42;23.20;99.90
44047;DHT22;29713;-33.888;151.150;2023-04-15T07:22:09;23.10;99.90
44047;DHT22;29713;-33.888;151.150;2023-04-15T07:24:37;23.10;99.90
44047;DHT22;29713;-33.888;151.150;2023-04-15T07:27:04;23.00;99.90
44047;DHT22;29713;-33.888;151.150;2023-04-15T07:29:31;23.00;99.90
44047;DHT22;29713;-33.888;151.150;2023-04-15T07:31:59;22.90;99.90
44047;DHT22;29713;-33.888;151.150;2023-04-15T07:34:26;23.00;99.90
44047;DHT22;29713;-33.888;151.150;2023-04-15T07:36:54;22.90;99.90
44047;DHT22;29713;-33.888;151.150;2023-04-15T07:39:21;22.90;99.90
44047;DHT22;29713;-33.888;151.150;2023-04-15T07:41:49;22.80;99.90
44047;DHT22;29713;-33.888;151.150;2023-04-15T07:44:16;22.80;99.90
44047;DHT22;29713;-33.888;151.150;2023-04-15T07:46:43;22.80;99.90
44047;DHT22;29713;-33.888;151.150;2023-04-15T07:49:11;22.70;99.90
44047;DHT22;29713;-33.888;151.150;2023-04-15T07:51:38;22.70;99.90
44047;DHT22;29713;-33.888;151.150;2023-04-15T07:54:06;22.70;99.90
44047;DHT22;29713;-33.888;151.150;2023-04-15T07:56:33;22.60;99.90
44047;DHT22;29713;-33.888;151.150;2023-04-15T07:59:00;22.60;99.90
44047;DHT22;29713;-33.888;151.150;2023-04-15T08:01:31;22.60;99.90
44047;DHT22;29713;-33.888;151.150;2023-04-15T08:04:02;22.60;99.90
44047;DHT22;29713;-33.888;151.150;2023-04-15T08:06:29;22.60;99.90
44047;DHT22;29713;-33.888;151.150;2023-04-15T08:08:56;22.60;99.90
44047;DHT22;29713;-33.888;151.150;2023-04-15T08:11:24;22.60;99.90
44047;DHT22;29713;-33.888;151.150;2023-04-15T08:13:52;22.80;99.90
44047;DHT22;29713;-33.888;151.150;2023-04-15T08:16:29;23.20;99.90
44047;DHT22;29713;-33.888;151.150;2023-04-15T08:18:57;23.20;99.90
44047;DHT22;29713;-33.888;151.150;2023-04-15T08:21:25;23.10;99.90
44047;DHT22;29713;-33.888;151.150;2023-04-15T08:23:53;23.00;99.90
44047;DHT22;29713;-33.888;151.150;2023-04-15T08:26:21;22.90;99.90
44047;DHT22;29713;-33.888;151.150;2023-04-15T08:28:48;22.80;99.90
44047;DHT22;29713;-33.888;151.150;2023-04-15T08:31:17;22.70;99.90
44047;DHT22;29713;-33.888;151.150;2023-04-15T08:33:45;22.70;99.90
44047;DHT22;29713;-33.888;151.150;2023-04-15T08:36:12;22.60;99.90
44047;DHT22;29713;-33.888;151.150;2023-04-15T08:38:40;22.60;99.90
44047;DHT22;29713;-33.888;151.150;2023-04-15T08:44:04;22.50;99.90
44047;DHT22;29713;-33.888;151.150;2023-04-15T08:46:32;22.50;99.90
44047;DHT22;29713;-33.888;151.150;2023-04-15T08:49:04;22.50;99.90
44047;DHT22;29713;-33.888;151.150;2023-04-15T08:51:32;22.40;99.90
44047;DHT22;29713;-33.888;151.150;2023-04-15T08:54:01;22.50;99.90
44047;DHT22;29713;-33.888;151.150;2023-04-15T08:56:30;22.50;99.90
44047;DHT22;29713;-33.888;151.150;2023-04-15T08:59:01;22.50;99.90
44047;DHT22;29713;-33.888;151.150;2023-04-15T09:01:30;22.40;99.90
44047;DHT22;29713;-33.888;151.150;2023-04-15T09:03:59;22.40;99.90
44047;DHT22;29713;-33.888;151.150;2023-04-15T09:06:28;22.40;99.90
44047;DHT22;29713;-33.888;151.150;2023-04-15T09:08:56;22.40;99.90
44047;DHT22;29713;-33.888;151.150;2023-04-15T09:11:23;22.30;99.90
44047;DHT22;29713;-33.888;151.150;2023-04-15T09:13:51;22.30;99.90
44047;DHT22;29713;-33.888;151.150;2023-04-15T09:16:18;22.30;99.90
44047;DHT22;29713;-33.888;151.150;2023-04-15T09:18:46;22.30;99.90
44047;DHT22;29713;-33.888;151.150;2023-04-15T09:21:14;22.30;99.90
44047;DHT22;29713;-33.888;151.150;2023-04-15T09:24:00;22.30;99.90
44047;DHT22;29713;-33.888;151.150;2023-04-15T09:26:34;22.30;99.90
44047;DHT22;29713;-33.888;151.150;2023-04-15T09:29:04;22.30;99.90
44047;DHT22;29713;-33.888;151.150;2023-04-15T09:31:32;22.30;99.90
44047;DHT22;29713;-33.888;151.150;2023-04-15T09:34:00;22.30;99.90
44047;DHT22;29713;-33.888;151.150;2023-04-15T09:36:28;22.30;99.90
44047;DHT22;29713;-33.888;151.150;2023-04-15T09:38:57;22.20;99.90
44047;DHT22;29713;-33.888;151.150;2023-04-15T09:41:27;22.20;99.90
44047;DHT22;29713;-33.888;151.150;2023-04-15T09:43:54;22.20;99.90
44047;DHT22;29713;-33.888;151.150;2023-04-15T09:46:41;22.20;99.90
44047;DHT22;29713;-33.888;151.150;2023-04-15T09:49:10;22.20;99.90
44047;DHT22;29713;-33.888;151.150;2023-04-15T09:51:38;22.20;99.90
44047;DHT22;29713;-33.888;151.150;2023-04-15T09:54:05;22.10;99.90
44047;DHT22;29713;-33.888;151.150;2023-04-15T09:56:36;22.10;99.90
44047;DHT22;29713;-33.888;151.150;2023-04-15T09:59:08;22.10;99.90
44047;DHT22;29713;-33.888;151.150;2023-04-15T10:01:35;22.10;99.90
44047;DHT22;29713;-33.888;151.150;2023-04-15T10:04:05;22.00;99.90
44047;DHT22;29713;-33.888;151.150;2023-04-15T10:06:33;22.00;99.90
44047;DHT22;29713;-33.888;151.150;2023-04-15T10:09:01;22.00;99.90
44047;DHT22;29713;-33.888;151.150;2023-04-15T10:11:29;21.90;99.90
44047;DHT22;29713;-33.888;151.150;2023-04-15T10:13:57;21.90;99.90
44047;DHT22;29713;-33.888;151.150;2023-04-15T10:16:27;21.90;99.90
44047;DHT22;29713;-33.888;151.150;2023-04-15T10:18:56;21.90;99.90
44047;DHT22;29713;-33.888;151.150;2023-04-15T10:21:27;21.90;99.90
44047;DHT22;29713;-33.888;151.150;2023-04-15T10:23:57;21.90;99.90
44047;DHT22;29713;-33.888;151.150;2023-04-15T10:26:25;21.90;99.90
44047;DHT22;29713;-33.888;151.150;2023-04-15T10:28:52;21.90;99.90
44047;DHT22;29713;-33.888;151.150;2023-04-15T10:31:23;21.80;99.90
44047;DHT22;29713;-33.888;151.150;2023-04-15T10:33:51;21.80;99.90
44047;DHT22;29713;-33.888;151.150;2023-04-15T10:36:19;21.80;99.90
44047;DHT22;29713;-33.888;151.150;2023-04-15T10:38:47;21.80;99.90
44047;DHT22;29713;-33.888;151.150;2023-04-15T10:43:51;21.80;99.90
44047;DHT22;29713;-33.888;151.150;2023-04-15T10:46:22;21.70;99.90
44047;DHT22;29713;-33.888;151.150;2023-04-15T10:48:51;21.70;99.90
44047;DHT22;29713;-33.888;151.150;2023-04-15T10:51:31;21.70;99.90
44047;DHT22;29713;-33.888;151.150;2023-04-15T10:54:01;21.70;99.90
44047;DHT22;29713;-33.888;151.150;2023-04-15T10:56:29;21.70;99.90
44047;DHT22;29713;-33.888;151.150;2023-04-15T10:58:58;21.60;99.90
44047;DHT22;29713;-33.888;151.150;2023-04-15T11:01:54;21.60;99.90
44047;DHT22;29713;-33.888;151.150;2023-04-15T11:04:56;21.70;99.90
44047;DHT22;29713;-33.888;151.150;2023-04-15T11:07:40;21.70;99.90
44047;DHT22;29713;-33.888;151.150;2023-04-15T11:12:57;21.60;99.90
44047;DHT22;29713;-33.888;151.150;2023-04-15T11:15:37;21.60;99.90
44047;DHT22;29713;-33.888;151.150;2023-04-15T11:18:13;21.60;99.90
44047;DHT22;29713;-33.888;151.150;2023-04-15T11:20:43;21.60;99.90
44047;DHT22;29713;-33.888;151.150;2023-04-15T11:23:12;21.60;99.90
44047;DHT22;29713;-33.888;151.150;2023-04-15T11:25:40;21.70;99.90
44047;DHT22;29713;-33.888;151.150;2023-04-15T11:28:08;21.60;99.90
44047;DHT22;29713;-33.888;151.150;2023-04-15T11:30:48;21.60;99.90
44047;DHT22;29713;-33.888;151.150;2023-04-15T11:33:16;21.60;99.90
44047;DHT22;29713;-33.888;151.150;2023-04-15T11:35:43;21.60;99.90
44047;DHT22;29713;-33.888;151.150;2023-04-15T11:38:15;21.60;99.90
44047;DHT22;29713;-33.888;151.150;2023-04-15T11:40:43;21.60;99.90
44047;DHT22;29713;-33.888;151.150;2023-04-15T11:43:21;21.60;99.90
44047;DHT22;29713;-33.888;151.150;2023-04-15T11:45:58;21.60;99.90
44047;DHT22;29713;-33.888;151.150;2023-04-15T11:48:28;21.60;99.90
44047;DHT22;29713;-33.888;151.150;2023-04-15T11:51:17;21.60;99.90
44047;DHT22;29713;-33.888;151.150;2023-04-15T11:53:50;21.60;99.90
44047;DHT22;29713;-33.888;151.150;2023-04-15T11:56:27;21.60;99.90
44047;DHT22;29713;-33.888;151.150;2023-04-15T11:58:58;21.60;99.90
44047;DHT22;29713;-33.888;151.150;2023-04-15T12:01:35;21.60;99.90
44047;DHT22;29713;-33.888;151.150;2023-04-15T12:04:17;21.60;99.90
44047;DHT22;29713;-33.888;151.150;2023-04-15T12:06:47;21.50;99.90
44047;DHT22;29713;-33.888;151.150;2023-04-15T12:09:17;21.50;99.90
44047;DHT22;29713;-33.888;151.150;2023-04-15T12:11:47;21.50;99.90
44047;DHT22;29713;-33.888;151.150;2023-04-15T12:14:24;21.50;99.90
44047;DHT22;29713;-33.888;151.150;2023-04-15T12:16:54;21.50;99.90
44047;DHT22;29713;-33.888;151.150;2023-04-15T12:21:56;21.50;99.90
44047;DHT22;29713;-33.888;151.150;2023-04-15T12:24:24;21.50;99.90
44047;DHT22;29713;-33.888;151.150;2023-04-15T12:26:55;21.50;99.90
44047;DHT22;29713;-33.888;151.150;2023-04-15T12:29:28;21.50;99.90
44047;DHT22;29713;-33.888;151.150;2023-04-15T12:31:57;21.50;99.90
44047;DHT22;29713;-33.888;151.150;2023-04-15T12:34:36;21.50;99.90
44047;DHT22;29713;-33.888;151.150;2023-04-15T12:37:08;21.50;99.90
44047;DHT22;29713;-33.888;151.150;2023-04-15T12:39:38;21.50;99.90
44047;DHT22;29713;-33.888;151.150;2023-04-15T12:42:07;21.60;99.90
44047;DHT22;29713;-33.888;151.150;2023-04-15T12:44:35;21.60;99.90
44047;DHT22;29713;-33.888;151.150;2023-04-15T12:47:03;21.50;99.90
44047;DHT22;29713;-33.888;151.150;2023-04-15T12:49:31;21.60;99.90
44047;DHT22;29713;-33.888;151.150;2023-04-15T12:52:00;21.60;99.90
44047;DHT22;29713;-33.888;151.150;2023-04-15T12:54:29;21.60;99.90
44047;DHT22;29713;-33.888;151.150;2023-04-15T12:56:57;21.60;99.90
44047;DHT22;29713;-33.888;151.150;2023-04-15T12:59:25;21.60;99.90
44047;DHT22;29713;-33.888;151.150;2023-04-15T13:01:52;21.60;99.90
44047;DHT22;29713;-33.888;151.150;2023-04-15T13:04:20;21.60;99.90
44047;DHT22;29713;-33.888;151.150;2023-04-15T13:06:48;21.50;99.90
44047;DHT22;29713;-33.888;151.150;2023-04-15T13:09:15;21.50;99.90
44047;DHT22;29713;-33.888;151.150;2023-04-15T13:11:43;21.50;99.90
44047;DHT22;29713;-33.888;151.150;2023-04-15T13:14:10;21.60;99.90
44047;DHT22;29713;-33.888;151.150;2023-04-15T13:16:38;21.60;99.90
44047;DHT22;29713;-33.888;151.150;2023-04-15T13:19:05;21.60;99.90
44047;DHT22;29713;-33.888;151.150;2023-04-15T13:21:33;21.50;99.90
44047;DHT22;29713;-33.888;151.150;2023-04-15T13:24:00;21.50;99.90
44047;DHT22;29713;-33.888;151.150;2023-04-15T13:26:28;21.50;99.90
44047;DHT22;29713;-33.888;151.150;2023-04-15T13:28:56;21.50;99.90
44047;DHT22;29713;-33.888;151.150;2023-04-15T13:31:24;21.50;99.90
44047;DHT22;29713;-33.888;151.150;2023-04-15T13:33:51;21.40;99.90
44047;DHT22;29713;-33.888;151.150;2023-04-15T13:36:18;21.40;99.90
44047;DHT22;29713;-33.888;151.150;2023-04-15T13:38:46;21.40;99.90
44047;DHT22;29713;-33.888;151.150;2023-04-15T13:41:14;21.40;99.90
44047;DHT22;29713;-33.888;151.150;2023-04-15T13:43:41;21.40;99.90
44047;DHT22;29713;-33.888;151.150;2023-04-15T13:46:08;21.40;99.90
44047;DHT22;29713;-33.888;151.150;2023-04-15T13:48:36;21.50;99.90
44047;DHT22;29713;-33.888;151.150;2023-04-15T13:51:04;21.40;99.90
44047;DHT22;29713;-33.888;151.150;2023-04-15T13:53:31;21.50;99.90
44047;DHT22;29713;-33.888;151.150;2023-04-15T13:55:58;21.50;99.90
44047;DHT22;29713;-33.888;151.150;2023-04-15T13:58:26;21.40;99.90
44047;DHT22;29713;-33.888;151.150;2023-04-15T14:00:53;21.40;99.90
44047;DHT22;29713;-33.888;151.150;2023-04-15T14:03:20;21.40;99.90
44047;DHT22;29713;-33.888;151.150;2023-04-15T14:05:48;21.40;99.90
44047;DHT22;29713;-33.888;151.150;2023-04-15T14:08:22;21.40;99.90
44047;DHT22;29713;-33.888;151.150;2023-04-15T14:10:49;21.40;99.90
44047;DHT22;29713;-33.888;151.150;2023-04-15T14:13:17;21.40;99.90
44047;DHT22;29713;-33.888;151.150;2023-04-15T14:15:45;21.40;99.90
44047;DHT22;29713;-33.888;151.150;2023-04-15T14:18:12;21.40;99.90
44047;DHT22;29713;-33.888;151.150;2023-04-15T14:20:40;21.30;99.90
44047;DHT22;29713;-33.888;151.150;2023-04-15T14:23:07;21.30;99.90
44047;DHT22;29713;-33.888;151.150;2023-04-15T14:25:34;21.30;99.90
44047;DHT22;29713;-33.888;151.150;2023-04-15T14:28:04;21.30;99.90
44047;DHT22;29713;-33.888;151.150;2023-04-15T14:30:32;21.30;99.90
44047;DHT22;29713;-33.888;151.150;2023-04-15T14:32:59;21.30;99.90
44047;DHT22;29713;-33.888;151.150;2023-04-15T14:35:27;21.30;99.90
44047;DHT22;29713;-33.888;151.150;2023-04-15T14:37:54;21.30;99.90
44047;DHT22;29713;-33.888;151.150;2023-04-15T14:40:21;21.30;99.90
44047;DHT22;29713;-33.888;151.150;2023-04-15T14:42:49;21.30;99.90
44047;DHT22;29713;-33.888;151.150;2023-04-15T14:45:16;21.30;99.90
44047;DHT22;29713;-33.888;151.150;2023-04-15T14:47:44;21.30;99.90
44047;DHT22;29713;-33.888;151.150;2023-04-15T14:50:11;21.30;99.90
44047;DHT22;29713;-33.888;151.150;2023-04-15T14:52:38;21.40;99.90
44047;DHT22;29713;-33.888;151.150;2023-04-15T14:55:07;21.30;99.90
44047;DHT22;29713;-33.888;151.150;2023-04-15T14:57:37;21.30;99.90
44047;DHT22;29713;-33.888;151.150;2023-04-15T15:00:05;21.30;99.90
44047;DHT22;29713;-33.888;151.150;2023-04-15T15:02:33;21.30;99.90
44047;DHT22;29713;-33.888;151.150;2023-04-15T15:05:02;21.30;99.90
44047;DHT22;29713;-33.888;151.150;2023-04-15T15:07:29;21.30;99.90